createdAt,value
2022-11-15T00:02:25.773Z,37.75
2022-11-15T00:05:12.207Z,38.13
2022-11-15T00:07:59.108Z,37.50
2022-11-15T00:10:56.135Z,37.47
2022-11-15T00:13:43.110Z,40.38
2022-11-15T00:16:29.467Z,38.78
2022-11-15T00:19:15.847Z,36.75
2022-11-15T00:22:02.434Z,37.63
2022-11-15T00:24:49.184Z,38.00
2022-11-15T00:27:37.014Z,37.22
2022-11-15T00:30:23.644Z,41.35
2022-11-15T00:33:11.610Z,40.10
2022-11-15T00:36:02.157Z,37.53
2022-11-15T00:38:48.645Z,34.93
2022-11-15T00:41:35.237Z,35.60
2022-11-15T00:44:22.768Z,38.50
2022-11-15T00:47:09.260Z,35.25
2022-11-15T00:49:55.773Z,35.63
2022-11-15T00:52:42.198Z,36.57
2022-11-15T00:55:28.435Z,35.13
2022-11-15T00:58:14.990Z,36.13
2022-11-15T01:01:09.805Z,36.08
2022-11-15T01:04:01.055Z,42.03
2022-11-15T01:06:47.958Z,36.77
2022-11-15T01:09:34.431Z,37.25
2022-11-15T01:12:20.971Z,40.53
2022-11-15T01:15:07.887Z,39.83
2022-11-15T01:17:55.820Z,38.38
2022-11-15T01:20:43.427Z,48.67
2022-11-15T01:23:30.487Z,47.60
2022-11-15T01:26:17.685Z,47.67
2022-11-15T01:29:04.255Z,47.40
2022-11-15T01:31:50.917Z,42.85
2022-11-15T01:34:38.759Z,50.07
2022-11-15T01:37:25.235Z,52.10
2022-11-15T01:40:12.637Z,56.60
2022-11-15T01:42:58.747Z,47.88
2022-11-15T01:45:46.345Z,52.65
2022-11-15T01:48:35.213Z,52.73
2022-11-15T01:51:26.416Z,54.70
2022-11-15T01:54:16.881Z,49.63
2022-11-15T01:57:06.495Z,55.30
2022-11-15T01:59:52.873Z,62.25
2022-11-15T02:02:40.199Z,63.97
2022-11-15T02:05:26.811Z,59.38
2022-11-15T02:08:20.913Z,61.45
2022-11-15T02:11:09.990Z,57.70
2022-11-15T02:13:56.872Z,58.08
2022-11-15T02:16:50.696Z,53.87
2022-11-15T02:20:07.735Z,55.63
2022-11-15T02:23:15.346Z,54.00
2022-11-15T02:26:29.143Z,56.53
2022-11-15T02:29:28.477Z,58.08
2022-11-15T02:32:20.569Z,57.23
2022-11-15T02:35:16.962Z,59.83
2022-11-15T02:38:13.549Z,54.42
2022-11-15T02:41:03.563Z,58.85
2022-11-15T02:44:00.313Z,53.90
2022-11-15T02:47:08.753Z,56.33
2022-11-15T02:50:00.011Z,59.20
2022-11-15T02:52:47.510Z,59.25
2022-11-15T02:55:36.166Z,51.30
2022-11-15T02:58:51.114Z,52.92
2022-11-15T03:01:50.025Z,58.97
2022-11-15T03:04:43.780Z,50.28
2022-11-15T03:07:38.007Z,51.53
2022-11-15T03:10:32.251Z,54.97
2022-11-15T03:13:25.943Z,51.38
2022-11-15T03:16:18.648Z,56.20
2022-11-15T03:19:10.724Z,59.05
2022-11-15T03:21:59.639Z,54.78
2022-11-15T03:24:49.326Z,54.88
2022-11-15T03:27:38.190Z,56.83
2022-11-15T03:30:24.667Z,54.00
2022-11-15T03:33:12.634Z,50.10
2022-11-15T03:35:59.586Z,51.83
2022-11-15T03:38:47.180Z,58.70
2022-11-15T03:41:41.268Z,76.47
2022-11-15T03:44:37.446Z,56.67
2022-11-15T03:47:28.344Z,58.72
2022-11-15T03:50:17.800Z,60.13
2022-11-15T03:53:04.515Z,58.45
2022-11-15T03:55:50.735Z,68.00
2022-11-15T03:58:38.570Z,72.80
2022-11-15T04:01:25.311Z,69.43
2022-11-15T04:04:11.918Z,66.15
2022-11-15T04:06:58.353Z,68.43
2022-11-15T04:09:58.641Z,72.50
2022-11-15T04:12:48.194Z,62.17
2022-11-15T04:15:36.836Z,64.72
2022-11-15T04:18:23.653Z,70.57
2022-11-15T04:21:27.971Z,71.57
2022-11-15T04:24:14.612Z,64.80
2022-11-15T04:27:01.671Z,65.83
2022-11-15T04:29:48.162Z,70.75
2022-11-15T04:32:35.943Z,79.05
2022-11-15T04:35:22.357Z,78.20
2022-11-15T04:38:10.078Z,75.78
2022-11-15T04:40:56.224Z,70.70
2022-11-15T04:43:42.547Z,76.07
2022-11-15T04:46:29.183Z,69.88
2022-11-15T04:49:17.048Z,68.72
2022-11-15T04:52:03.514Z,72.68
2022-11-15T04:54:49.760Z,70.93
2022-11-15T04:57:36.374Z,71.90
2022-11-15T05:00:22.669Z,84.85
2022-11-15T05:03:28.908Z,80.55
2022-11-15T05:06:16.614Z,77.47
2022-11-15T05:09:03.062Z,72.20
2022-11-15T05:11:49.482Z,72.35
2022-11-15T05:14:35.964Z,72.13
2022-11-15T05:17:22.319Z,74.25
2022-11-15T05:20:09.656Z,64.75
2022-11-15T05:22:57.307Z,71.27
2022-11-15T05:25:43.607Z,67.03
2022-11-15T05:28:30.346Z,65.07
2022-11-15T05:31:17.739Z,73.05
2022-11-15T05:34:06.672Z,63.80
2022-11-15T05:36:53.434Z,60.33
2022-11-15T05:39:41.185Z,66.85
2022-11-15T05:42:29.206Z,64.70
2022-11-15T05:45:16.205Z,71.90
2022-11-15T05:48:06.825Z,63.30
2022-11-15T05:50:53.634Z,63.23
2022-11-15T05:53:39.888Z,62.03
2022-11-15T05:56:27.958Z,55.50
2022-11-15T05:59:14.600Z,59.90
2022-11-15T06:02:01.298Z,62.42
2022-11-15T06:04:47.659Z,60.67
2022-11-15T06:07:34.042Z,60.50
2022-11-15T06:10:20.550Z,56.13
2022-11-15T06:13:08.391Z,59.35
2022-11-15T06:15:57.453Z,56.22
2022-11-15T06:18:43.692Z,56.60
2022-11-15T06:21:30.163Z,54.90
2022-11-15T06:24:16.373Z,56.20
2022-11-15T06:27:02.702Z,50.63
2022-11-15T06:29:50.726Z,50.95
2022-11-15T06:32:37.231Z,45.77
2022-11-15T06:35:23.744Z,51.30
2022-11-15T06:38:12.576Z,48.80
2022-11-15T06:41:03.769Z,53.10
2022-11-15T06:43:50.242Z,45.88
2022-11-15T06:46:37.945Z,47.57
2022-11-15T06:49:24.376Z,44.67
2022-11-15T06:52:10.859Z,52.20
2022-11-15T06:54:57.238Z,44.15
2022-11-15T06:57:48.974Z,44.03
2022-11-15T07:00:35.484Z,46.43
2022-11-15T07:03:23.508Z,55.70
2022-11-15T07:06:10.831Z,37.88
2022-11-15T07:08:56.990Z,48.05
2022-11-15T07:11:43.473Z,41.75
2022-11-15T07:14:29.828Z,39.43
2022-11-15T07:17:16.159Z,38.33
2022-11-15T07:20:04.480Z,34.85
2022-11-15T07:22:50.804Z,38.72
2022-11-15T07:25:37.501Z,38.42
2022-11-15T07:28:24.013Z,34.77
2022-11-15T07:31:11.087Z,36.08
2022-11-15T07:33:57.495Z,32.30
2022-11-15T07:36:45.437Z,36.13
2022-11-15T07:39:31.933Z,32.28
2022-11-15T07:42:36.194Z,33.73
2022-11-15T07:45:23.227Z,29.02
2022-11-15T07:48:09.931Z,30.00
2022-11-15T07:50:56.237Z,34.00
2022-11-15T07:53:44.729Z,34.42
2022-11-15T07:56:31.113Z,33.67
2022-11-15T07:59:17.778Z,28.40
2022-11-15T08:02:04.758Z,30.92
2022-11-15T08:04:51.229Z,28.90
2022-11-15T08:07:38.995Z,35.75
2022-11-15T08:10:26.635Z,30.63
2022-11-15T08:13:14.343Z,31.20
2022-11-15T08:16:01.381Z,33.88
2022-11-15T08:18:47.698Z,32.60
2022-11-15T08:21:34.631Z,37.00
2022-11-15T08:24:21.374Z,28.97
2022-11-15T08:27:15.756Z,32.78
2022-11-15T08:30:02.490Z,33.45
2022-11-15T08:32:49.018Z,29.45
2022-11-15T08:35:35.401Z,29.05
2022-11-15T08:38:21.823Z,29.90
2022-11-15T08:41:08.697Z,29.95
2022-11-15T08:43:56.439Z,28.67
2022-11-15T08:46:43.011Z,29.60
2022-11-15T08:49:30.930Z,24.70
2022-11-15T08:52:17.149Z,27.80
2022-11-15T08:55:03.722Z,26.30
2022-11-15T08:57:50.059Z,28.00
2022-11-15T09:00:37.766Z,21.23
2022-11-15T09:03:24.345Z,21.70
2022-11-15T09:06:11.804Z,28.93
2022-11-15T09:08:58.456Z,23.05
2022-11-15T09:11:44.914Z,23.80
2022-11-15T09:14:31.582Z,21.67
2022-11-15T09:17:24.226Z,22.48
2022-11-15T09:20:11.814Z,20.97
2022-11-15T09:23:01.868Z,17.30
2022-11-15T09:25:48.653Z,20.40
2022-11-15T09:28:36.178Z,22.10
2022-11-15T09:31:22.734Z,18.55
2022-11-15T09:34:10.711Z,20.33
2022-11-15T09:36:57.043Z,18.67
2022-11-15T09:39:43.614Z,22.33
2022-11-15T09:43:00.739Z,19.05
2022-11-15T09:45:57.330Z,19.27
2022-11-15T09:48:55.082Z,21.57
2022-11-15T09:51:48.583Z,18.42
2022-11-15T09:57:16.520Z,21.10
2022-11-15T09:59:53.279Z,19.38
2022-11-15T10:02:38.794Z,15.83
2022-11-15T10:05:10.048Z,18.50
2022-11-15T10:07:48.068Z,17.77
2022-11-15T10:10:22.843Z,22.38
2022-11-15T10:12:53.633Z,18.90
2022-11-15T10:15:23.637Z,14.07
2022-11-15T10:18:06.458Z,12.63
2022-11-15T10:20:42.385Z,12.82
2022-11-15T10:23:16.058Z,15.02
2022-11-15T10:25:44.487Z,11.82
2022-11-15T10:28:16.378Z,17.10
2022-11-15T10:30:46.384Z,13.40
2022-11-15T10:33:28.413Z,13.40
2022-11-15T10:36:22.167Z,13.43
2022-11-15T10:39:00.649Z,11.55
2022-11-15T10:41:35.559Z,12.67
2022-11-15T10:44:31.059Z,11.85
2022-11-15T10:47:23.390Z,11.25
2022-11-15T10:50:06.158Z,12.45
2022-11-15T10:52:35.984Z,15.38
2022-11-15T10:55:22.131Z,13.90
2022-11-15T10:57:52.923Z,11.45
2022-11-15T11:00:31.033Z,11.20
2022-11-15T11:03:01.453Z,11.48
2022-11-15T11:05:35.269Z,14.60
2022-11-15T11:08:25.393Z,11.77
2022-11-15T11:11:02.549Z,11.02
2022-11-15T11:13:33.077Z,19.92
2022-11-15T11:16:21.001Z,10.68
2022-11-15T11:18:56.717Z,10.88
2022-11-15T11:21:32.999Z,10.47
2022-11-15T11:24:14.030Z,10.38
2022-11-15T11:26:56.972Z,14.68
2022-11-15T11:29:41.428Z,7.82
2022-11-15T11:32:24.965Z,10.80
2022-11-15T11:35:00.504Z,7.30
2022-11-15T11:37:35.093Z,12.18
2022-11-15T11:40:15.615Z,9.10
2022-11-15T11:42:49.864Z,11.13
2022-11-15T11:45:23.690Z,12.93
2022-11-15T11:48:01.764Z,7.93
2022-11-15T11:50:30.232Z,10.70
2022-11-15T11:53:04.351Z,9.88
2022-11-15T11:55:39.465Z,8.38
2022-11-15T11:58:16.327Z,10.35
2022-11-15T12:00:49.178Z,8.10
2022-11-15T12:03:26.329Z,8.52
2022-11-15T12:05:56.955Z,8.32
2022-11-15T12:08:32.992Z,12.07
2022-11-15T12:11:08.897Z,11.48
2022-11-15T12:13:38.798Z,9.43
2022-11-15T12:16:14.456Z,9.02
2022-11-15T12:18:46.573Z,8.88
2022-11-15T12:21:27.018Z,10.15
2022-11-15T12:24:00.727Z,7.88
2022-11-15T12:26:33.275Z,7.87
2022-11-15T12:29:08.748Z,8.00
2022-11-15T12:31:40.564Z,7.63
2022-11-15T12:34:30.658Z,11.85
2022-11-15T12:36:58.473Z,8.32
2022-11-15T12:40:03.534Z,8.40
2022-11-15T12:42:43.344Z,8.27
2022-11-15T12:48:40.514Z,6.60
2022-11-15T12:51:09.827Z,6.80
2022-11-15T12:53:37.611Z,4.97
2022-11-15T12:56:21.995Z,8.93
2022-11-15T12:58:51.747Z,10.25
2022-11-15T13:02:09.390Z,7.28
2022-11-15T13:04:37.242Z,7.93
2022-11-15T13:07:08.568Z,8.05
2022-11-15T13:09:55.371Z,7.47
2022-11-15T13:12:51.542Z,8.82
2022-11-15T13:15:43.128Z,3.92
2022-11-15T13:18:32.446Z,6.80
2022-11-15T13:21:02.581Z,6.32
2022-11-15T13:23:32.963Z,6.30
2022-11-15T13:26:14.751Z,6.35
2022-11-15T13:28:46.607Z,9.25
2022-11-15T13:31:30.082Z,6.55
2022-11-15T13:34:02.542Z,7.30
2022-11-15T13:36:33.957Z,5.50
2022-11-15T13:39:06.106Z,8.73
2022-11-15T13:41:36.674Z,7.15
2022-11-15T13:44:05.977Z,4.45
2022-11-15T13:46:34.687Z,7.55
2022-11-15T13:49:04.436Z,4.50
2022-11-15T13:51:39.723Z,7.93
2022-11-15T13:54:22.381Z,7.28
2022-11-15T13:56:56.646Z,6.82
2022-11-15T13:59:27.608Z,5.55
2022-11-15T14:01:56.191Z,5.13
2022-11-15T14:04:27.029Z,5.80
2022-11-15T14:06:59.096Z,5.30
2022-11-15T14:09:36.656Z,9.35
2022-11-15T14:12:20.493Z,5.70
2022-11-15T14:14:49.136Z,5.37
2022-11-15T14:17:24.447Z,6.15
2022-11-15T14:19:53.223Z,7.65
2022-11-15T14:22:23.268Z,5.43
2022-11-15T14:27:46.927Z,6.15
2022-11-15T14:30:16.718Z,5.70
2022-11-15T14:32:47.481Z,8.20
2022-11-15T14:35:18.265Z,6.60
2022-11-15T14:37:46.415Z,3.75
2022-11-15T14:40:17.250Z,6.43
2022-11-15T14:42:50.256Z,5.03
2022-11-15T14:45:20.145Z,5.03
2022-11-15T14:47:48.470Z,4.68
2022-11-15T14:50:19.296Z,4.90
2022-11-15T14:52:47.159Z,7.93
2022-11-15T14:55:20.961Z,5.10
2022-11-15T14:57:50.157Z,5.03
2022-11-15T15:00:19.189Z,6.50
2022-11-15T15:02:48.549Z,8.57
2022-11-15T15:05:18.854Z,9.80
2022-11-15T15:07:47.500Z,6.93
2022-11-15T15:10:38.923Z,5.78
2022-11-15T15:13:07.008Z,5.72
2022-11-15T15:15:37.008Z,6.10
2022-11-15T15:18:05.755Z,7.80
2022-11-15T15:20:33.687Z,4.80
2022-11-15T15:23:01.391Z,5.95
2022-11-15T15:25:30.753Z,6.43
2022-11-15T15:27:58.563Z,6.88
2022-11-15T15:30:29.152Z,5.80
2022-11-15T15:32:57.480Z,4.77
2022-11-15T15:35:31.139Z,4.18
2022-11-15T15:37:59.650Z,6.70
2022-11-15T15:40:30.360Z,7.30
2022-11-15T15:42:58.170Z,4.72
2022-11-15T15:45:28.877Z,8.93
2022-11-15T15:47:56.845Z,9.50
2022-11-15T15:50:26.698Z,6.68
2022-11-15T15:52:56.193Z,7.78
2022-11-15T15:55:24.491Z,5.88
2022-11-15T15:57:52.456Z,7.27
2022-11-15T16:00:22.115Z,4.82
2022-11-15T16:02:51.694Z,6.07
2022-11-15T16:05:19.871Z,3.55
2022-11-15T16:07:48.780Z,5.55
2022-11-15T16:10:23.481Z,6.77
2022-11-15T16:12:51.862Z,6.53
2022-11-15T16:15:20.203Z,5.00
2022-11-15T16:17:52.801Z,3.53
2022-11-15T16:20:31.437Z,5.65
2022-11-15T16:23:03.094Z,7.60
2022-11-15T16:25:39.228Z,9.48
2022-11-15T16:28:06.914Z,4.20
2022-11-15T16:30:34.656Z,6.20
2022-11-15T16:33:03.785Z,4.10
2022-11-15T16:35:31.485Z,3.63
2022-11-15T16:37:59.253Z,6.15
2022-11-15T16:40:30.886Z,3.45
2022-11-15T16:42:59.847Z,5.95
2022-11-15T16:45:29.300Z,5.65
2022-11-15T16:48:00.485Z,5.97
2022-11-15T16:50:31.509Z,6.03
2022-11-15T16:53:01.018Z,6.15
2022-11-15T16:55:30.725Z,4.82
2022-11-15T16:57:59.021Z,7.82
2022-11-15T17:00:27.004Z,10.13
2022-11-15T17:02:55.972Z,4.63
2022-11-15T17:05:27.196Z,4.28
2022-11-15T17:07:56.833Z,4.38
2022-11-15T17:10:26.106Z,5.13
2022-11-15T17:12:56.084Z,4.87
2022-11-15T17:15:24.670Z,4.15
2022-11-15T17:17:53.810Z,5.57
2022-11-15T17:20:23.634Z,8.52
2022-11-15T17:22:52.691Z,4.55
2022-11-15T17:25:22.138Z,5.00
2022-11-15T17:27:49.853Z,4.25
2022-11-15T17:30:18.707Z,7.20
2022-11-15T17:32:47.045Z,6.20
2022-11-15T17:35:15.811Z,3.30
2022-11-15T17:37:44.038Z,9.10
2022-11-15T17:40:12.435Z,5.53
2022-11-15T17:42:43.252Z,5.72
2022-11-15T17:45:12.275Z,5.63
2022-11-15T17:47:40.230Z,5.45
2022-11-15T17:50:08.229Z,6.93
2022-11-15T17:52:35.968Z,5.15
2022-11-15T17:55:03.760Z,7.85
2022-11-15T17:57:31.743Z,5.55
2022-11-15T18:00:00.858Z,6.10
2022-11-15T18:02:28.589Z,6.97
2022-11-15T18:04:56.432Z,5.95
2022-11-15T18:07:24.342Z,5.55
2022-11-15T18:09:54.365Z,5.63
2022-11-15T18:12:22.082Z,6.70
2022-11-15T18:14:49.809Z,6.97
2022-11-15T18:17:19.260Z,5.90
2022-11-15T18:19:48.591Z,5.30
2022-11-15T18:22:16.544Z,6.32
2022-11-15T18:24:44.823Z,6.45
2022-11-15T18:27:12.778Z,5.40
2022-11-15T18:29:40.620Z,5.13
2022-11-15T18:32:12.263Z,5.38
2022-11-15T18:34:41.462Z,7.45
2022-11-15T18:37:09.240Z,5.75
2022-11-15T18:39:37.886Z,5.67
2022-11-15T18:42:06.194Z,5.20
2022-11-15T18:44:34.430Z,6.45
2022-11-15T18:47:02.153Z,5.88
2022-11-15T18:49:29.981Z,7.85
2022-11-15T18:51:59.013Z,5.20
2022-11-15T18:54:31.014Z,6.88
2022-11-15T18:56:59.786Z,8.27
2022-11-15T18:59:28.115Z,7.50
2022-11-15T19:01:56.837Z,4.93
2022-11-15T19:04:24.574Z,6.67
2022-11-15T19:06:53.472Z,5.82
2022-11-15T19:09:24.439Z,6.03
2022-11-15T19:11:52.376Z,6.97
2022-11-15T19:14:23.838Z,8.32
2022-11-15T19:16:52.226Z,8.00
2022-11-15T19:19:22.492Z,7.25
2022-11-15T19:21:50.365Z,5.72
2022-11-15T19:24:18.126Z,6.85
2022-11-15T19:26:47.542Z,7.03
2022-11-15T19:29:18.234Z,5.77
2022-11-15T19:31:48.471Z,8.85
2022-11-15T19:34:16.491Z,6.68
2022-11-15T19:36:45.473Z,6.35
2022-11-15T19:39:14.912Z,6.53
2022-11-15T19:41:44.478Z,7.43
2022-11-15T19:44:14.500Z,7.97
2022-11-15T19:46:42.750Z,8.15
2022-11-15T19:49:11.698Z,8.13
2022-11-15T19:51:42.296Z,8.20
2022-11-15T19:54:10.799Z,9.33
2022-11-15T19:56:39.810Z,7.05
2022-11-15T19:59:07.818Z,8.65
2022-11-15T20:01:39.342Z,8.45
2022-11-15T20:04:09.938Z,9.82
2022-11-15T20:06:43.987Z,10.07
2022-11-15T20:09:14.258Z,11.70
2022-11-15T20:11:42.605Z,8.48
2022-11-15T20:14:11.644Z,8.73
2022-11-15T20:16:41.012Z,9.32
2022-11-15T20:19:09.487Z,7.87
2022-11-15T20:21:37.303Z,9.93
2022-11-15T20:24:05.663Z,9.18
2022-11-15T20:26:33.415Z,9.38
2022-11-15T20:29:03.104Z,9.95
2022-11-15T20:31:31.417Z,10.27
2022-11-15T20:34:00.791Z,10.00
2022-11-15T20:36:28.904Z,10.38
2022-11-15T20:38:58.517Z,10.68
2022-11-15T20:41:26.651Z,10.82
2022-11-15T20:43:54.391Z,10.30
2022-11-15T20:46:22.112Z,11.85
2022-11-15T20:48:50.045Z,9.70
2022-11-15T20:51:19.799Z,9.48
2022-11-15T20:53:48.582Z,9.02
2022-11-15T20:56:18.125Z,9.57
2022-11-15T20:58:46.855Z,10.15
2022-11-15T21:01:16.334Z,11.75
2022-11-15T21:03:44.445Z,10.52
2022-11-15T21:06:12.412Z,13.85
2022-11-15T21:08:55.415Z,10.83
2022-11-15T21:11:41.174Z,11.98
2022-11-15T21:14:09.888Z,11.10
2022-11-15T21:16:37.988Z,12.57
2022-11-15T21:19:06.569Z,14.05
2022-11-15T21:21:37.261Z,12.00
2022-11-15T21:24:07.915Z,11.90
2022-11-15T21:26:36.494Z,12.88
2022-11-15T21:29:05.253Z,9.77
2022-11-15T21:31:33.424Z,11.75
2022-11-15T21:34:01.806Z,13.20
2022-11-15T21:36:29.688Z,11.55
2022-11-15T21:38:57.443Z,13.35
2022-11-15T21:41:27.782Z,14.18
2022-11-15T21:43:58.351Z,12.45
2022-11-15T21:46:26.401Z,12.33
2022-11-15T21:48:54.117Z,12.82
2022-11-15T21:51:22.362Z,10.75
2022-11-15T21:53:50.396Z,11.55
2022-11-15T21:56:18.099Z,12.60
2022-11-15T21:58:47.737Z,11.53
2022-11-15T22:01:33.119Z,12.32
2022-11-15T22:04:01.079Z,14.40
2022-11-15T22:06:29.222Z,12.90
2022-11-15T22:08:56.917Z,12.20
2022-11-15T22:11:24.616Z,11.67
2022-11-15T22:13:53.711Z,12.18
2022-11-15T22:16:21.414Z,13.18
2022-11-15T22:18:49.221Z,12.00
2022-11-15T22:21:21.371Z,12.88
2022-11-15T22:23:49.340Z,12.07
2022-11-15T22:26:23.453Z,13.82
2022-11-15T22:28:53.722Z,15.25
2022-11-15T22:31:21.507Z,12.52
2022-11-15T22:33:49.403Z,13.45
2022-11-15T22:36:17.473Z,11.20
2022-11-15T22:38:45.738Z,15.15
2022-11-15T22:41:13.559Z,13.05
2022-11-15T22:43:41.325Z,11.93
2022-11-15T22:46:10.896Z,14.25
2022-11-15T22:48:39.898Z,13.33
2022-11-15T22:51:08.279Z,13.20
2022-11-15T22:53:36.107Z,13.65
2022-11-15T22:56:06.586Z,15.30
2022-11-15T22:58:35.089Z,15.30
2022-11-15T23:01:05.329Z,13.73
2022-11-15T23:03:35.153Z,13.27
2022-11-15T23:06:04.148Z,16.10
2022-11-15T23:08:32.257Z,14.15
2022-11-15T23:11:21.139Z,14.18
2022-11-15T23:13:51.642Z,15.70
2022-11-15T23:16:34.181Z,15.30
2022-11-15T23:19:06.103Z,16.52
2022-11-15T23:21:52.835Z,15.40
2022-11-15T23:24:21.918Z,16.63
2022-11-15T23:26:51.689Z,16.73
2022-11-15T23:29:24.984Z,18.35
2022-11-15T23:32:11.331Z,15.63
2022-11-15T23:34:42.841Z,16.35
2022-11-15T23:37:12.629Z,14.93
2022-11-15T23:39:40.572Z,16.70
2022-11-15T23:42:09.594Z,16.65
2022-11-15T23:44:37.701Z,19.30
2022-11-15T23:47:05.781Z,18.30
2022-11-15T23:49:33.838Z,16.20
2022-11-15T23:52:02.971Z,18.97
2022-11-15T23:54:30.917Z,18.92
2022-11-15T23:56:58.680Z,20.60
2022-11-15T23:59:26.447Z,17.90
